createdAt,value
2023-11-23T00:03:51.199Z,5
2023-11-23T00:09:40.944Z,5
2023-11-23T00:14:51.164Z,5.1
2023-11-23T00:19:51.175Z,5.1
2023-11-23T00:25:40.890Z,5
2023-11-23T00:30:51.157Z,5.3
2023-11-23T00:35:51.214Z,5.3
2023-11-23T00:41:40.969Z,5.3
2023-11-23T00:46:51.190Z,5.2
2023-11-23T00:51:51.161Z,5.2
2023-11-23T00:56:51.181Z,5.2
2023-11-23T01:02:40.851Z,5.3
2023-11-23T01:07:40.894Z,5.4
2023-11-23T01:12:41.025Z,5.5
2023-11-23T01:17:51.248Z,5.7
2023-11-23T01:22:59.449Z,5.8
2023-11-23T01:28:40.959Z,5.9
2023-11-23T01:33:51.436Z,6
2023-11-23T01:39:40.887Z,6.1
2023-11-23T01:44:51.140Z,6.2
2023-11-23T01:49:51.158Z,6.2
2023-11-23T01:55:40.861Z,6.2
2023-11-23T02:00:50.942Z,6.2
2023-11-23T02:10:51.179Z,6.3
2023-11-23T02:16:40.753Z,6.3
2023-11-23T02:21:51.144Z,6.3
2023-11-23T02:27:40.645Z,6.4
2023-11-23T02:32:40.724Z,6.4
2023-11-23T02:37:40.688Z,6.4
2023-11-23T02:42:43.852Z,6.4
2023-11-23T02:47:51.161Z,6.4
2023-11-23T02:53:40.608Z,6.4
2023-11-23T02:58:40.647Z,6.5
2023-11-23T03:03:40.781Z,6.4
2023-11-23T03:08:50.975Z,6.5
2023-11-23T03:14:40.642Z,6.5
2023-11-23T03:19:50.933Z,6.5
2023-11-23T03:25:40.663Z,6.5
2023-11-23T03:30:40.707Z,6.5
2023-11-23T03:35:40.871Z,6.5
2023-11-23T03:40:51.038Z,6.5
2023-11-23T03:46:40.605Z,6.5
2023-11-23T03:51:40.737Z,6.5
2023-11-23T03:56:51.275Z,6.6
2023-11-23T04:01:51.265Z,6.5
2023-11-23T04:06:51.770Z,6.6
2023-11-23T04:12:40.837Z,6.6
2023-11-23T04:17:40.881Z,6.6
2023-11-23T04:22:50.883Z,6.6
2023-11-23T04:27:51.138Z,6.6
2023-11-23T04:32:51.283Z,6.5
2023-11-23T04:37:51.261Z,6.6
2023-11-23T04:43:40.949Z,6.7
2023-11-23T04:48:51.179Z,6.7
2023-11-23T04:54:40.838Z,6.8
2023-11-23T04:59:50.937Z,6.8
2023-11-23T05:04:51.111Z,6.8
2023-11-23T05:09:51.249Z,6.8
2023-11-23T05:15:40.830Z,6.8
2023-11-23T05:20:40.900Z,6.8
2023-11-23T05:25:51.481Z,6.8
2023-11-23T05:31:40.826Z,6.9
2023-11-23T05:36:40.830Z,6.8
2023-11-23T05:41:40.842Z,6.9
2023-11-23T05:46:51.140Z,7
2023-11-23T05:51:51.161Z,6.9
2023-11-23T06:02:40.927Z,6.9
2023-11-23T06:07:51.004Z,7
2023-11-23T06:13:42.531Z,7
2023-11-23T06:18:51.206Z,7
2023-11-23T06:23:51.278Z,7
2023-11-23T06:28:51.727Z,7
2023-11-23T06:34:41.250Z,7.1
2023-11-23T06:39:51.097Z,7.1
2023-11-23T06:44:51.191Z,7.1
2023-11-23T06:49:51.182Z,7.2
2023-11-23T06:55:40.861Z,7.2
2023-11-23T07:00:51.107Z,7.2
2023-11-23T07:05:51.141Z,7.2
2023-11-23T07:10:51.239Z,7.2
2023-11-23T07:16:00.430Z,7.3
2023-11-23T07:21:40.868Z,7.3
2023-11-23T07:26:51.485Z,7.4
2023-11-23T07:31:51.167Z,7.5
2023-11-23T07:37:40.873Z,7.6
2023-11-23T07:42:41.054Z,7.8
2023-11-23T07:47:51.305Z,7.8
2023-11-23T07:53:40.860Z,7.9
2023-11-23T07:58:51.095Z,8
2023-11-23T08:03:51.368Z,8
2023-11-23T08:09:40.617Z,8.1
2023-11-23T08:14:41.232Z,8.1
2023-11-23T08:19:51.112Z,8
2023-11-23T08:24:51.242Z,8.2
2023-11-23T08:30:40.757Z,8.2
2023-11-23T08:35:50.952Z,8.2
2023-11-23T08:40:50.969Z,8.3
2023-11-23T08:46:40.765Z,8.2
2023-11-23T08:51:51.126Z,8.2
2023-11-23T08:57:40.688Z,8.3
2023-11-23T09:02:50.969Z,8.2
2023-11-23T09:07:50.977Z,8.3
2023-11-23T09:13:40.605Z,8.3
2023-11-23T09:18:40.772Z,8.3
2023-11-23T09:23:40.728Z,8.3
2023-11-23T09:28:50.979Z,8.3
2023-11-23T09:33:59.295Z,8.4
2023-11-23T09:39:40.894Z,8.3
2023-11-23T09:44:50.982Z,8.4
2023-11-23T09:49:51.024Z,8.4
2023-11-23T09:54:51.181Z,8.4
2023-11-23T09:59:51.177Z,8.4
2023-11-23T10:05:41.005Z,8.4
2023-11-23T10:10:51.115Z,8.4
2023-11-23T10:15:51.359Z,8.4
2023-11-23T10:20:51.244Z,8.4
2023-11-23T10:26:40.844Z,8.5
2023-11-23T10:32:00.525Z,8.5
2023-11-23T10:37:40.983Z,8.6
2023-11-23T10:42:51.108Z,8.5
2023-11-23T10:47:51.188Z,8.5
2023-11-23T10:53:40.829Z,8.4
2023-11-23T10:58:41.034Z,8.5
2023-11-23T11:04:41.014Z,8.5
2023-11-23T11:09:51.328Z,8.5
2023-11-23T11:15:40.964Z,8.5
2023-11-23T11:20:51.209Z,8.5
2023-11-23T11:26:40.857Z,8.5
2023-11-23T11:31:51.137Z,8.6
2023-11-23T11:37:40.944Z,8.6
2023-11-23T11:42:51.087Z,8.5
2023-11-23T11:47:51.140Z,8.6
2023-11-23T11:52:51.158Z,8.6
2023-11-23T11:58:40.616Z,8.6
2023-11-23T12:03:40.936Z,8.7
2023-11-23T12:09:00.398Z,8.7
2023-11-23T12:14:40.699Z,8.7
2023-11-23T12:19:51.148Z,8.6
2023-11-23T12:24:51.218Z,8.7
2023-11-23T12:30:40.686Z,8.7
2023-11-23T12:35:40.853Z,8.7
2023-11-23T12:40:50.901Z,8.7
2023-11-23T12:45:51.399Z,8.7
2023-11-23T12:51:40.931Z,8.7
2023-11-23T12:56:41.012Z,8.6
2023-11-23T13:01:41.306Z,8.6
2023-11-23T13:06:51.431Z,8.6
2023-11-23T13:11:51.352Z,8.6
2023-11-23T13:17:40.908Z,8.6
2023-11-23T13:22:40.868Z,8.6
2023-11-23T13:27:51.271Z,8.6
2023-11-23T13:33:40.938Z,8.6
2023-11-23T13:38:50.983Z,8.6
2023-11-23T13:44:40.740Z,8.7
2023-11-23T13:49:40.826Z,8.7
2023-11-23T13:54:50.961Z,8.7
2023-11-23T13:59:51.230Z,8.7
2023-11-23T14:04:51.262Z,8.7
2023-11-23T14:10:40.896Z,8.7
2023-11-23T14:15:51.357Z,8.7
2023-11-23T14:21:40.714Z,8.7
2023-11-23T14:26:40.707Z,8.7
2023-11-23T14:31:51.584Z,8.7
2023-11-23T14:37:40.644Z,8.7
2023-11-23T14:42:48.456Z,8.7
2023-11-23T14:47:40.799Z,8.8
2023-11-23T14:52:50.983Z,8.8
2023-11-23T14:58:40.600Z,8.8
2023-11-23T15:03:40.693Z,8.8
2023-11-23T15:08:40.685Z,8.9
2023-11-23T15:13:40.744Z,8.8
2023-11-23T15:18:40.917Z,8.9
2023-11-23T15:23:51.019Z,8.9
2023-11-23T15:29:40.647Z,8.8
2023-11-23T15:34:50.923Z,8.9
2023-11-23T15:40:40.586Z,8.9
2023-11-23T15:45:40.687Z,8.9
2023-11-23T15:50:40.738Z,9
2023-11-23T15:55:40.866Z,8.9
2023-11-23T16:00:51.068Z,9
2023-11-23T16:05:51.131Z,8.9
2023-11-23T16:11:40.995Z,9
2023-11-23T16:16:51.190Z,8.9
2023-11-23T16:21:51.289Z,9
2023-11-23T16:26:51.185Z,8.9
2023-11-23T16:42:40.739Z,8.9
2023-11-23T16:47:40.883Z,9
2023-11-23T16:52:51.230Z,8.9
2023-11-23T16:57:51.284Z,8.9
2023-11-23T17:03:41.044Z,8.9
2023-11-23T17:08:41.211Z,8.9
2023-11-23T17:14:40.667Z,8.9
2023-11-23T17:19:51.174Z,8.9
2023-11-23T17:24:51.490Z,8.9
2023-11-23T17:30:40.671Z,8.8
2023-11-23T17:35:40.843Z,8.8
2023-11-23T17:40:40.842Z,8.9
2023-11-23T17:45:40.887Z,8.9
2023-11-23T17:50:41.267Z,8.9
2023-11-23T17:55:51.140Z,9
2023-11-23T18:01:40.909Z,9
2023-11-23T18:06:50.940Z,9
2023-11-23T18:11:51.140Z,9
2023-11-23T18:16:51.260Z,9
2023-11-23T18:22:40.736Z,9.1
2023-11-23T18:27:41.011Z,9
2023-11-23T18:32:51.187Z,9.1
2023-11-23T18:38:40.783Z,9.1
2023-11-23T18:43:40.832Z,9.1
2023-11-23T18:48:40.996Z,9.1
2023-11-23T18:53:40.969Z,9.2
2023-11-23T18:58:41.612Z,9.2
2023-11-23T19:03:51.274Z,9.3
2023-11-23T19:08:51.252Z,9.3
2023-11-23T19:13:51.176Z,9.3
2023-11-23T19:19:40.832Z,9.3
2023-11-23T19:24:51.175Z,9.3
2023-11-23T19:30:40.685Z,9.3
2023-11-23T19:35:40.876Z,9.3
2023-11-23T19:40:51.276Z,9.3
2023-11-23T19:46:40.890Z,9.4
2023-11-23T19:51:40.941Z,9.4
2023-11-23T19:56:51.116Z,9.4
2023-11-23T20:02:40.863Z,9.3
2023-11-23T20:07:51.271Z,9.4
2023-11-23T20:12:51.370Z,9.4
2023-11-23T20:18:40.849Z,9.4
2023-11-23T20:23:40.861Z,9.4
2023-11-23T20:28:51.124Z,9.3
2023-11-23T20:33:51.837Z,9.4
2023-11-23T20:39:40.872Z,9.4
2023-11-23T20:44:51.142Z,9.4
2023-11-23T20:49:51.263Z,9.4
2023-11-23T20:55:40.701Z,9.4
2023-11-23T21:00:51.061Z,9.4
2023-11-23T21:05:50.992Z,9.4
2023-11-23T21:11:40.623Z,9.4
2023-11-23T21:16:40.626Z,9.4
2023-11-23T21:21:40.656Z,9.4
2023-11-23T21:26:40.661Z,9.4
2023-11-23T21:31:40.921Z,9.4
2023-11-23T21:36:50.962Z,9.4
2023-11-23T21:42:40.633Z,9.4
2023-11-23T21:47:51.466Z,9.4
2023-11-23T21:53:40.711Z,9.4
2023-11-23T21:58:40.825Z,9.4
2023-11-23T22:03:41.337Z,9.4
2023-11-23T22:08:50.879Z,9.4
2023-11-23T22:13:51.104Z,9.4
2023-11-23T22:19:40.808Z,9.3
2023-11-23T22:24:51.200Z,9.4
2023-11-23T22:29:51.164Z,9.4
2023-11-23T22:35:40.837Z,9.4
2023-11-23T22:40:51.161Z,9.4
2023-11-23T22:46:40.678Z,9.4
2023-11-23T22:51:40.902Z,9.4
2023-11-23T22:56:51.194Z,9.4
2023-11-23T23:02:40.948Z,9.4
2023-11-23T23:07:51.128Z,9.4
2023-11-23T23:12:51.198Z,9.4
2023-11-23T23:18:40.966Z,9.4
2023-11-23T23:23:40.938Z,9.4
2023-11-23T23:28:51.121Z,9.4
2023-11-23T23:33:51.209Z,9.4
2023-11-23T23:39:40.892Z,9.3
2023-11-23T23:44:52.488Z,9.1
2023-11-23T23:50:40.849Z,8.9
2023-11-23T23:55:51.116Z,8.9
